Time;durP1;ratioP1;P1;durP2;ratioP2;P2;SDS_P1;SDS_P2;PMS_P1;PMS_P2;Temp;Humidity;BMP_temperature;BMP_pressure;BME280_temperature;BME280_humidity;BME280_pressure;Samples;Min_cycle;Max_cycle;Signal;HPM_P1;HPM_P2
2023/05/22 06:42:07;;;;;;;5.40;4.60;;;;;;;28.31;44.89;101256.19;105863;1283;613010;-88
2023/05/22 06:44:53;;;;;;;9.10;5.10;;;;;;;29.27;44.35;101257.44;105731;1287;179176;-87
2023/05/22 06:47:39;;;;;;;5.30;4.10;;;;;;;29.73;43.91;101262.08;106204;1282;58908;-87
2023/05/22 06:50:25;;;;;;;8.30;5.20;;;;;;;30.32;43.75;101262.41;106218;1285;71707;-87
2023/05/22 06:53:11;;;;;;;4.80;4.30;;;;;;;30.95;43.68;101260.73;106249;1282;69422;-88
2023/05/22 06:55:57;;;;;;;6.70;4.20;;;;;;;31.61;43.28;101263.45;106237;1282;73244;-87
2023/05/22 06:58:43;;;;;;;6.60;4.30;;;;;;;32.23;42.85;101255.04;106005;1280;59272;-87
2023/05/22 07:01:30;;;;;;;5.60;4.40;;;;;;;32.90;42.39;101254.80;105969;1280;59018;-87
2023/05/22 07:04:16;;;;;;;;;;;;;;;33.57;41.87;101255.60;106336;1282;70847;-88
2023/05/22 07:07:02;;;;;;;4.10;3.70;;;;;;;34.07;41.82;101253.41;106234;1281;67247;-87
2023/05/22 07:09:48;;;;;;;8.10;3.80;;;;;;;34.13;41.28;101254.41;106271;1280;74141;-88
2023/05/22 07:12:35;;;;;;;6.10;4.00;;;;;;;33.73;41.23;101256.46;106252;1286;60673;-87
2023/05/22 07:15:21;;;;;;;3.90;3.50;;;;;;;33.86;40.85;101253.52;106221;1281;59168;-87
2023/05/22 07:18:08;;;;;;;4.30;3.90;;;;;;;34.45;40.18;101254.95;106163;1284;71661;-87
2023/05/22 07:20:55;;;;;;;4.80;3.50;;;;;;;34.78;39.47;101253.63;106228;1282;67766;-88
2023/05/22 07:23:41;;;;;;;5.70;3.40;;;;;;;34.66;39.07;101250.16;106023;1282;71424;-88
2023/05/22 07:26:28;;;;;;;3.50;3.30;;;;;;;34.26;38.21;101251.44;106213;1284;59558;-87
2023/05/22 07:29:15;;;;;;;6.60;3.20;;;;;;;33.75;38.36;101249.13;106174;1279;59240;-87
2023/05/22 07:32:01;;;;;;;5.00;3.40;;;;;;;33.98;37.54;101251.16;106091;1281;73264;-87
2023/05/22 07:34:47;;;;;;;5.40;3.10;;;;;;;33.62;37.17;101248.15;106160;1283;68879;-87
2023/05/22 07:37:34;;;;;;;4.20;3.80;;;;;;;33.39;36.91;101240.56;106123;1282;71386;-85
2023/05/22 07:40:21;;;;;;;4.20;2.90;;;;;;;33.24;36.62;101241.02;106182;1279;59382;-85
2023/05/22 07:43:07;;;;;;;5.10;2.80;;;;;;;34.01;36.23;101239.59;105992;1283;59669;-87
2023/05/22 07:45:53;;;;;;;4.80;2.70;;;;;;;34.99;35.33;101240.77;106103;1279;72081;-87
2023/05/22 07:48:39;;;;;;;4.20;3.10;;;;;;;35.94;34.46;101238.09;106091;1279;68189;-87
2023/05/22 07:51:25;;;;;;;3.60;2.50;;;;;;;36.71;33.97;101241.52;106337;1279;73173;-87
2023/05/22 07:54:13;;;;;;;6.60;3.40;;;;;;;37.11;33.08;101244.09;106087;1280;58133;-87
2023/05/22 07:57:02;;;;;;;3.80;3.20;;;;;;;37.51;33.17;101240.36;106110;1284;60195;-88
2023/05/22 07:59:49;;;;;;;4.40;2.80;;;;;;;38.44;33.00;101240.41;105944;1284;71579;-85
2023/05/22 08:02:35;;;;;;;10.50;3.00;;;;;;;39.20;32.22;101242.32;106334;1281;72550;-85
2023/05/22 08:05:22;;;;;;;6.40;3.00;;;;;;;39.82;31.87;101237.84;106096;1281;71093;-86
2023/05/22 08:08:11;;;;;;;4.10;3.00;;;;;;;40.68;31.71;101234.66;106119;1279;57475;-86
2023/05/22 08:10:58;;;;;;;6.60;2.80;;;;;;;41.53;31.38;101230.56;106255;1280;59130;-86
2023/05/22 08:13:44;;;;;;;4.70;3.00;;;;;;;42.16;30.61;101232.28;106327;1282;71991;-86
2023/05/22 08:16:31;;;;;;;3.40;3.10;;;;;;;42.32;30.06;101232.06;106340;1284;68586;-86
2023/05/22 08:19:17;;;;;;;3.10;2.90;;;;;;;42.51;29.22;101237.13;106299;1282;74488;-86
2023/05/22 08:22:03;;;;;;;3.50;3.20;;;;;;;42.72;28.88;101231.20;106332;1279;59261;-86
2023/05/22 08:24:50;;;;;;;4.10;3.10;;;;;;;42.89;28.22;101231.02;106332;1282;60087;-86
2023/05/22 08:27:36;;;;;;;3.50;3.20;;;;;;;43.35;27.49;101227.39;106331;1281;72963;-86
2023/05/22 08:30:22;;;;;;;3.90;3.60;;;;;;;42.91;26.77;101224.75;106278;1281;68581;-86
2023/05/22 08:33:08;;;;;;;3.50;3.20;;;;;;;42.82;26.42;101217.53;106363;1282;71492;-86
2023/05/22 08:35:54;;;;;;;5.30;3.70;;;;;;;43.03;25.86;101212.92;106309;1284;59127;-86
2023/05/22 08:38:41;;;;;;;4.10;3.70;;;;;;;43.32;25.44;101213.19;106163;1279;60297;-86
2023/05/22 08:41:28;;;;;;;6.30;3.90;;;;;;;43.56;25.10;101209.20;106145;1279;72307;-86
2023/05/22 08:44:14;;;;;;;3.90;3.20;;;;;;;43.50;24.01;101211.65;106374;1282;67824;-86
2023/05/22 08:47:02;;;;;;;4.10;3.80;;;;;;;43.18;23.84;101208.73;106304;1279;72511;-86
2023/05/22 08:49:53;;;;;;;3.80;3.50;;;;;;;43.00;23.42;101207.45;106337;1279;58055;-86
2023/05/22 08:53:03;;;;;;;4.80;3.40;;;;;;;42.02;23.11;101200.05;106332;1279;59600;-86
2023/05/22 08:55:51;;;;;;;8.40;2.70;;;;;;;39.69;23.20;101192.46;106353;1279;71808;-85
2023/05/22 08:58:38;;;;;;;5.00;2.40;;;;;;;37.93;22.91;101191.49;106346;1283;67357;-85
2023/05/22 09:01:28;;;;;;;2.40;2.20;;;;;;;36.30;22.78;101184.33;106369;1279;71268;-85
2023/05/22 09:04:14;;;;;;;3.90;2.20;;;;;;;34.69;22.49;101181.94;106116;1279;60698;-85
2023/05/22 09:07:04;;;;;;;1.90;1.80;;;;;;;33.28;22.14;101181.55;106382;1279;61745;-85
2023/05/22 09:09:50;;;;;;;6.20;2.30;;;;;;;31.77;22.25;101175.33;106205;1279;71631;-85
2023/05/22 09:12:36;;;;;;;4.50;1.80;;;;;;;30.56;22.08;101173.40;106192;1280;67210;-84
2023/05/22 09:15:28;;;;;;;2.10;1.80;;;;;;;29.53;22.13;101171.40;106358;1279;71250;-84
2023/05/22 09:18:14;;;;;;;2.80;2.00;;;;;;;28.76;22.27;101162.55;106249;1281;57978;-86
2023/05/22 09:21:01;;;;;;;;;;;;;;;28.26;22.45;101157.62;106474;1282;58868;-86
2023/05/22 09:23:49;;;;;;;3.90;1.90;;;;;;;27.85;22.79;101156.74;106421;1279;71112;-86
2023/05/22 09:26:39;;;;;;;5.00;2.10;;;;;;;27.54;22.86;101151.58;106213;1279;68345;-86
2023/05/22 09:29:25;;;;;;;2.10;1.90;;;;;;;27.20;22.96;101154.92;106430;1283;71345;-86
2023/05/22 09:32:13;;;;;;;7.10;2.40;;;;;;;26.92;23.07;101155.88;106358;1284;59604;-86
2023/05/22 09:35:03;;;;;;;4.90;1.90;;;;;;;26.60;23.13;101148.38;106359;1279;59570;-86
2023/05/22 09:37:50;;;;;;;3.20;1.70;;;;;;;26.43;23.30;101135.19;106213;1279;72419;-85
2023/05/22 09:40:40;;;;;;;5.80;2.20;;;;;;;26.27;23.55;101142.32;106366;1279;69969;-85
2023/05/22 09:43:26;;;;;;;2.50;1.90;;;;;;;26.05;23.61;101147.30;106868;1281;70159;-86
2023/05/22 09:49:59;;;;;;;5.10;1.50;;;;;;;25.55;24.07;101141.88;106273;1284;60108;-86
2023/05/22 09:52:47;;;;;;;2.90;1.70;;;;;;;25.45;24.24;101140.84;106095;1280;71639;-86
2023/05/22 09:55:35;;;;;;;3.80;1.90;;;;;;;25.37;24.23;101137.86;106406;1279;68565;-86
2023/05/22 09:58:24;;;;;;;3.40;1.70;;;;;;;25.18;24.32;101134.99;106154;1279;72275;-85
2023/05/22 10:01:12;;;;;;;4.00;1.60;;;;;;;25.07;24.65;101129.67;106282;1280;59624;-85
2023/05/22 10:04:00;;;;;;;2.40;2.10;;;;;;;25.13;24.88;101132.35;106016;1280;59606;-86
2023/05/22 10:06:50;;;;;;;1.70;1.60;;;;;;;25.20;24.96;101136.25;106221;1279;72492;-85
2023/05/22 10:09:39;;;;;;;4.70;2.10;;;;;;;25.06;24.98;101122.52;106167;1280;66806;-85
2023/05/22 10:12:29;;;;;;;2.50;1.70;;;;;;;25.05;25.09;101119.09;106108;1283;74007;-85
2023/05/22 10:15:16;;;;;;;3.90;2.20;;;;;;;24.96;25.11;101115.84;106239;1279;59821;-85
2023/05/22 10:18:03;;;;;;;2.30;1.90;;;;;;;24.89;25.22;101111.16;106103;1284;60303;-85
2023/05/22 10:20:50;;;;;;;2.90;2.00;;;;;;;24.84;25.52;101110.13;106094;1282;72788;-85
2023/05/22 10:23:36;;;;;;;3.20;1.90;;;;;;;24.81;25.38;101115.27;106233;1279;67329;-85
2023/05/22 10:26:24;;;;;;;2.20;1.60;;;;;;;24.76;25.62;101107.48;106298;1281;72608;-85
2023/05/22 10:29:15;;;;;;;1.90;1.80;;;;;;;24.73;25.79;101110.85;106048;1284;59743;-85
2023/05/22 10:32:34;;;;;;;3.90;2.10;;;;;;;24.70;25.70;101106.27;106061;1279;59166;-85
2023/05/22 10:35:23;;;;;;;6.50;1.70;;;;;;;24.67;25.97;101103.50;106196;1282;70593;-85
2023/05/22 10:38:48;;;;;;;4.00;2.00;;;;;;;24.70;26.16;101097.63;106313;1284;67302;-85
2023/05/22 10:41:34;;;;;;;2.10;1.90;;;;;;;24.76;26.20;101093.73;106264;1284;72623;-85
2023/05/22 10:44:21;;;;;;;3.00;2.10;;;;;;;24.77;26.27;101089.04;106308;1280;59435;-85
2023/05/22 10:47:12;;;;;;;4.00;2.20;;;;;;;24.81;26.19;101085.82;106347;1281;60375;-85
2023/05/22 10:50:09;;;;;;;2.20;1.60;;;;;;;24.65;26.22;101083.86;106188;1280;72442;-85
2023/05/22 10:53:21;;;;;;;4.80;2.00;;;;;;;24.62;26.53;101074.19;106216;1282;68849;-85
2023/05/22 10:56:13;;;;;;;2.00;1.70;;;;;;;24.66;26.60;101075.00;106315;1279;72047;-85
2023/05/22 10:59:04;;;;;;;2.20;2.00;;;;;;;24.67;26.58;101071.39;106368;1281;59709;-85
2023/05/22 11:01:59;;;;;;;3.80;2.00;;;;;;;24.68;26.63;101075.19;106205;1284;59737;-85
2023/05/22 11:04:45;;;;;;;2.80;1.90;;;;;;;24.56;26.70;101074.46;106276;1284;72987;-85
2023/05/22 11:07:41;;;;;;;;;;;;;;;24.47;26.83;101070.80;106408;1279;68728;-85
2023/05/22 11:10:50;;;;;;;3.10;2.00;;;;;;;24.44;27.10;101070.36;106276;1280;72358;-85
2023/05/22 11:13:37;;;;;;;3.80;2.00;;;;;;;24.49;27.13;101064.55;106293;1284;57498;-85
2023/05/22 11:16:23;;;;;;;2.30;2.10;;;;;;;24.55;27.23;101061.98;106071;1285;60059;-85
2023/05/22 11:19:10;;;;;;;3.50;1.90;;;;;;;24.62;27.26;101058.70;106145;1284;75832;-85
2023/05/22 11:22:00;;;;;;;2.30;2.00;;;;;;;24.68;27.43;101062.67;106333;1280;67506;-85
2023/05/22 11:24:46;;;;;;;2.30;2.10;;;;;;;24.67;27.36;101058.66;106077;1282;71262;-85
2023/05/22 11:27:34;;;;;;;8.80;2.20;;;;;;;24.61;27.40;101060.70;105988;1282;60564;-85
2023/05/22 11:30:25;;;;;;;2.30;2.00;;;;;;;24.56;27.50;101058.37;106005;1279;58503;-88
2023/05/22 11:33:54;;;;;;;8.50;2.30;;;;;;;24.54;27.53;101059.73;106236;1285;73788;-91
2023/05/22 11:37:48;;;;;;;3.60;1.80;;;;;;;24.51;27.60;101055.36;106039;1283;69186;-91
2023/05/22 11:40:57;;;;;;;3.20;2.20;;;;;;;24.44;27.82;101045.30;105370;1289;71329;-89
2023/05/22 11:43:43;;;;;;;3.50;2.00;;;;;;;24.49;27.79;101042.45;105127;1289;60682;-90
2023/05/22 11:46:35;;;;;;;3.00;2.00;;;;;;;24.51;27.92;101043.42;105275;1289;59807;-90
2023/05/22 11:49:25;;;;;;;2.30;2.10;;;;;;;24.49;28.14;101039.13;105296;1290;73170;-91
2023/05/22 11:53:01;;;;;;;2.50;1.90;;;;;;;24.58;28.16;101037.81;104798;1289;69937;-91
2023/05/22 11:56:12;;;;;;;2.60;1.90;;;;;;;24.69;28.33;101034.73;105471;1292;73468;-91
2023/05/22 11:59:39;;;;;;;3.40;2.40;;;;;;;24.77;28.23;101031.42;105606;1292;59353;-91
2023/05/22 12:03:05;;;;;;;2.20;1.90;;;;;;;24.81;28.38;101027.45;105596;1292;60466;-91
2023/05/22 12:06:33;;;;;;;4.70;1.80;;;;;;;24.84;28.23;101025.29;105574;1289;73342;-91
2023/05/22 12:09:42;;;;;;;3.60;2.00;;;;;;;24.86;28.59;101020.55;105527;1293;67343;-90
2023/05/22 12:12:30;;;;;;;3.40;2.10;;;;;;;24.90;28.41;101019.23;105495;1294;71584;-90
2023/05/22 12:15:40;;;;;;;3.00;2.00;;;;;;;24.88;28.31;101021.14;105606;1286;59163;-91
2023/05/22 12:18:36;;;;;;;2.70;1.90;;;;;;;24.82;28.33;101017.09;106050;1279;59531;-91
2023/05/22 12:21:23;;;;;;;1.80;1.70;;;;;;;24.86;28.39;101017.73;106301;1284;72608;-90
2023/05/22 12:24:22;;;;;;;8.10;2.20;;;;;;;24.88;28.44;101015.11;106563;1280;69279;-89
2023/05/22 12:27:11;;;;;;;4.90;2.20;;;;;;;24.94;28.60;101001.63;105971;1285;72555;-87
2023/05/22 12:30:00;;;;;;;5.50;1.80;;;;;;;25.02;28.83;101001.96;106312;1283;60491;-87
2023/05/22 12:32:56;;;;;;;3.70;2.10;;;;;;;25.04;28.67;100999.72;106146;1279;60466;-87
2023/05/22 12:35:51;;;;;;;2.20;2.00;;;;;;;24.92;28.32;101000.52;105986;1284;73521;-87
2023/05/22 12:38:40;;;;;;;1.90;1.70;;;;;;;24.81;28.52;100999.23;106051;1281;67314;-87
2023/05/22 12:41:27;;;;;;;2.20;1.80;;;;;;;24.76;28.37;100994.48;106161;1279;71232;-87
2023/05/22 12:44:16;;;;;;;2.50;2.30;;;;;;;24.71;28.46;100988.93;106169;1279;60210;-87
2023/05/22 12:47:02;;;;;;;4.40;1.90;;;;;;;24.67;28.50;100989.41;106050;1280;60334;-87
2023/05/22 12:49:48;;;;;;;2.10;1.90;;;;;;;24.68;28.60;100984.42;106050;1280;72363;-88
2023/05/22 12:52:35;;;;;;;3.70;2.00;;;;;;;24.72;28.66;100983.60;105887;1280;69006;-86
2023/05/22 12:55:21;;;;;;;2.20;1.80;;;;;;;24.68;28.69;100983.35;105886;1285;73002;-86
2023/05/22 12:58:08;;;;;;;8.40;2.40;;;;;;;24.70;28.62;100978.96;106056;1284;60314;-86
2023/05/22 13:00:54;;;;;;;;;;;;;;;24.71;28.82;100974.71;106323;1279;59918;-86
2023/05/22 13:03:40;;;;;;;3.50;1.90;;;;;;;24.68;28.54;100973.33;106369;1284;73155;-86
2023/05/22 13:06:26;;;;;;;3.60;1.80;;;;;;;24.68;28.80;100969.40;106184;1280;68132;-86
2023/05/22 13:09:15;;;;;;;2.20;1.90;;;;;;;24.72;28.66;100970.52;106225;1284;73066;-87
2023/05/22 13:12:01;;;;;;;2.30;2.10;;;;;;;24.65;28.53;100964.86;106216;1284;59113;-86
2023/05/22 13:14:47;;;;;;;3.10;2.00;;;;;;;24.61;28.79;100963.04;106185;1283;60256;-87
2023/05/22 13:17:34;;;;;;;2.90;1.90;;;;;;;24.64;28.82;100962.64;106196;1280;73523;-86
2023/05/22 13:20:20;;;;;;;2.20;1.80;;;;;;;24.68;28.83;100953.58;106268;1281;67317;-86
2023/05/22 13:23:08;;;;;;;5.50;1.90;;;;;;;24.72;28.92;100952.02;106155;1282;72504;-86
2023/05/22 13:25:54;;;;;;;5.00;2.10;;;;;;;24.77;28.78;100953.33;105965;1283;60451;-86
2023/05/22 13:28:40;;;;;;;5.90;2.40;;;;;;;24.75;28.83;100947.97;106031;1285;59132;-86
2023/05/22 13:31:27;;;;;;;1.90;1.60;;;;;;;24.72;28.80;100942.51;106127;1285;72479;-86
2023/05/22 13:34:13;;;;;;;2.00;1.80;;;;;;;24.72;29.00;100946.21;106082;1280;68138;-86
2023/05/22 13:36:59;;;;;;;7.50;2.20;;;;;;;24.79;29.10;100947.48;106201;1280;72414;-86
2023/05/22 13:39:45;;;;;;;1.80;1.70;;;;;;;24.84;28.97;100941.02;106220;1286;60540;-86
2023/05/22 13:42:32;;;;;;;5.60;1.90;;;;;;;24.85;29.10;100941.42;106046;1280;59911;-86
2023/05/22 13:45:18;;;;;;;2.70;1.70;;;;;;;24.88;29.13;100942.14;106109;1279;74373;-86
2023/05/22 13:48:04;;;;;;;3.00;2.10;;;;;;;24.91;29.23;100942.45;106190;1284;67467;-86
2023/05/22 13:50:51;;;;;;;7.00;2.00;;;;;;;24.93;29.11;100941.44;106084;1289;71225;-86
2023/05/22 13:53:37;;;;;;;;;;;;;;;24.88;29.21;100936.27;106157;1281;58880;-86
2023/05/22 13:56:23;;;;;;;5.70;1.90;;;;;;;24.92;29.37;100934.06;106316;1279;59336;-87
2023/05/22 13:59:09;;;;;;;2.40;2.10;;;;;;;24.95;29.16;100932.98;106032;1280;72460;-86
2023/05/22 14:01:56;;;;;;;2.50;1.80;;;;;;;24.93;29.46;100936.31;106063;1279;67268;-86
2023/05/22 14:04:42;;;;;;;58.20;24.80;;;;;;;24.91;29.30;100931.83;106042;1280;71478;-86
2023/05/22 14:07:29;;;;;;;7.40;5.10;;;;;;;24.90;29.46;100928.02;106259;1279;60251;-86
2023/05/22 14:10:15;;;;;;;7.90;2.70;;;;;;;24.94;29.52;100927.35;106084;1281;60274;-86
2023/05/22 14:13:02;;;;;;;6.70;2.50;;;;;;;24.97;29.55;100926.64;106248;1280;71328;-86
2023/05/22 14:15:49;;;;;;;2.90;2.20;;;;;;;24.98;29.56;100922.02;106056;1285;67337;-86
2023/05/22 14:18:36;;;;;;;3.70;2.30;;;;;;;24.94;29.31;100929.30;106082;1280;72152;-86
2023/05/22 14:21:22;;;;;;;5.30;2.10;;;;;;;24.84;29.24;100930.71;105977;1287;59413;-87
2023/05/22 14:24:08;;;;;;;2.70;2.10;;;;;;;24.73;29.31;100924.31;106105;1280;63107;-86
2023/05/22 14:26:56;;;;;;;3.20;1.50;;;;;;;24.66;29.40;100919.88;106038;1280;72236;-86
2023/05/22 14:29:43;;;;;;;1.90;1.70;;;;;;;24.65;29.53;100916.95;106022;1280;69128;-87
2023/05/22 14:32:32;;;;;;;2.30;2.10;;;;;;;24.65;29.39;100918.84;105983;1279;72569;-87
2023/05/22 14:35:18;;;;;;;3.80;1.90;;;;;;;24.63;29.44;100923.02;106032;1283;60361;-86
2023/05/22 14:38:06;;;;;;;1.90;1.40;;;;;;;24.60;29.37;100921.17;105908;1285;59268;-85
2023/05/22 14:40:52;;;;;;;2.70;1.90;;;;;;;24.57;29.44;100919.77;105972;1282;73450;-85
2023/05/22 14:43:38;;;;;;;5.20;2.70;;;;;;;24.55;29.38;100914.66;105842;1286;67644;-86
2023/05/22 14:46:24;;;;;;;4.00;1.80;;;;;;;24.53;29.34;100909.45;106027;1280;71792;-86
2023/05/22 14:49:11;;;;;;;2.90;1.80;;;;;;;24.54;29.39;100908.55;105787;1285;60456;-86
2023/05/22 14:51:57;;;;;;;7.40;1.80;;;;;;;24.52;29.24;100909.94;106176;1279;60473;-86
2023/05/22 14:54:43;;;;;;;2.20;2.00;;;;;;;24.43;29.29;100907.70;105893;1280;77864;-86
2023/05/22 14:57:30;;;;;;;8.20;1.70;;;;;;;24.33;29.24;100904.36;105979;1286;68389;-85
2023/05/22 15:00:16;;;;;;;4.90;1.80;;;;;;;24.21;29.39;100902.34;105842;1280;72451;-86
2023/05/22 15:03:02;;;;;;;;;;;;;;;24.19;29.72;100902.64;105986;1280;58947;-86
2023/05/22 15:05:49;;;;;;;5.50;2.30;;;;;;;24.20;29.58;100904.34;105919;1281;60393;-85
2023/05/22 15:08:35;;;;;;;2.50;1.90;;;;;;;24.19;29.35;100898.63;106136;1282;73412;-85
2023/05/22 15:11:21;;;;;;;2.50;2.00;;;;;;;24.16;29.56;100897.23;106031;1279;69751;-86
2023/05/22 15:14:08;;;;;;;1.90;1.80;;;;;;;24.16;29.53;100896.90;106025;1279;71231;-85
2023/05/22 15:16:54;;;;;;;2.50;2.10;;;;;;;24.16;29.62;100895.31;105908;1279;58870;-86
2023/05/22 15:19:42;;;;;;;3.30;1.50;;;;;;;24.17;29.73;100896.44;106238;1279;63018;-85
2023/05/22 15:22:28;;;;;;;5.10;1.90;;;;;;;24.18;29.55;100896.04;106014;1279;72387;-86
2023/05/22 15:25:14;;;;;;;6.20;1.80;;;;;;;24.16;29.56;100891.06;106001;1285;67107;-86
2023/05/22 15:28:05;;;;;;;4.70;2.00;;;;;;;24.15;29.66;100890.61;106064;1280;71194;-85
2023/05/22 15:30:51;;;;;;;4.10;2.40;;;;;;;24.15;29.65;100892.20;106028;1281;60382;-86
2023/05/22 15:33:37;;;;;;;3.80;2.10;;;;;;;24.12;29.54;100885.52;105942;1280;58972;-85
2023/05/22 15:36:25;;;;;;;3.40;1.70;;;;;;;24.09;29.51;100886.39;105909;1281;74511;-85
2023/05/22 15:39:11;;;;;;;2.00;1.80;;;;;;;24.06;29.58;100881.50;105995;1280;67423;-86
2023/05/22 15:41:57;;;;;;;2.60;1.60;;;;;;;24.04;29.64;100877.81;106046;1280;71861;-85
2023/05/22 15:44:44;;;;;;;1.80;1.70;;;;;;;24.05;29.82;100871.75;105939;1279;60494;-85
2023/05/22 15:47:30;;;;;;;2.30;2.10;;;;;;;24.06;29.83;100868.84;106068;1280;60370;-86
2023/05/22 15:50:16;;;;;;;6.50;2.20;;;;;;;24.04;29.81;100867.04;105933;1284;72336;-86
2023/05/22 15:53:02;;;;;;;2.60;2.00;;;;;;;24.01;29.74;100865.84;105929;1283;67516;-86
2023/05/22 15:55:49;;;;;;;2.10;2.00;;;;;;;23.94;29.69;100865.98;105926;1287;74256;-85
2023/05/22 15:58:35;;;;;;;6.40;2.20;;;;;;;23.88;29.69;100862.71;105911;1282;60454;-85
2023/05/22 16:01:21;;;;;;;3.00;2.40;;;;;;;23.85;29.77;100861.88;105995;1280;58513;-85
2023/05/22 16:04:07;;;;;;;7.20;2.40;;;;;;;23.82;29.77;100857.66;106151;1281;74215;-85
2023/05/22 16:06:53;;;;;;;3.80;2.60;;;;;;;23.80;29.76;100857.77;106172;1280;67348;-85
2023/05/22 16:09:42;;;;;;;6.30;2.70;;;;;;;23.78;29.91;100854.96;105920;1280;71252;-86
2023/05/22 16:12:28;;;;;;;2.30;1.90;;;;;;;23.77;29.92;100852.35;105964;1282;61473;-86
2023/05/22 16:15:14;;;;;;;2.40;2.20;;;;;;;23.75;29.83;100847.55;105998;1281;60380;-86
2023/05/22 16:18:00;;;;;;;4.90;2.00;;;;;;;23.69;29.92;100848.65;106051;1284;72444;-86
2023/05/22 16:20:46;;;;;;;2.20;1.70;;;;;;;23.65;29.96;100846.28;106143;1283;67222;-86
2023/05/22 16:23:33;;;;;;;5.90;1.90;;;;;;;23.62;29.95;100846.15;106107;1279;71315;-85
2023/05/22 16:26:20;;;;;;;4.10;2.20;;;;;;;23.61;30.11;100844.30;106125;1280;60330;-86
2023/05/22 16:29:09;;;;;;;4.70;2.00;;;;;;;23.59;30.02;100843.69;106019;1280;60788;-87
2023/05/22 16:31:56;;;;;;;2.10;1.90;;;;;;;23.56;30.10;100841.61;105916;1280;75214;-86
2023/05/22 16:34:42;;;;;;;3.60;2.00;;;;;;;23.54;30.19;100841.41;105850;1280;67294;-86
2023/05/22 16:37:28;;;;;;;5.60;2.10;;;;;;;23.49;30.16;100845.04;105979;1285;71521;-88
2023/05/22 16:40:14;;;;;;;4.40;2.30;;;;;;;23.44;30.28;100841.15;106015;1279;58952;-86
2023/05/22 16:43:00;;;;;;;4.00;2.30;;;;;;;23.40;30.33;100840.85;105951;1280;59747;-88
2023/05/22 16:45:49;;;;;;;5.90;2.00;;;;;;;23.37;30.45;100838.83;106025;1280;74337;-86
2023/05/22 16:48:36;;;;;;;4.40;1.90;;;;;;;23.35;30.46;100841.08;106061;1279;67996;-86
2023/05/22 16:51:22;;;;;;;5.30;2.20;;;;;;;23.33;30.49;100840.71;105917;1279;71145;-86
2023/05/22 16:54:08;;;;;;;3.30;2.40;;;;;;;23.29;30.51;100842.20;105962;1279;59174;-86
2023/05/22 16:56:54;;;;;;;4.40;2.20;;;;;;;23.24;30.59;100842.84;105896;1280;61980;-86
2023/05/22 16:59:41;;;;;;;4.50;1.80;;;;;;;23.17;30.49;100842.27;105978;1279;73589;-86
2023/05/22 17:02:27;;;;;;;2.50;2.10;;;;;;;23.11;30.75;100843.30;106033;1284;71286;-86
2023/05/22 17:05:14;;;;;;;3.10;2.10;;;;;;;23.04;30.66;100840.63;106010;1285;71835;-86
2023/05/22 17:08:00;;;;;;;7.90;2.40;;;;;;;22.98;30.79;100838.94;106025;1282;60325;-85
2023/05/22 17:10:47;;;;;;;4.40;2.10;;;;;;;22.93;30.82;100837.30;105948;1282;60324;-85
2023/05/22 17:13:33;;;;;;;11.70;3.70;;;;;;;22.87;30.97;100831.92;106226;1281;73751;-85
2023/05/22 17:16:20;;;;;;;5.10;2.80;;;;;;;22.82;30.93;100832.21;105974;1279;70357;-85
2023/05/22 17:19:06;;;;;;;8.40;4.80;;;;;;;22.79;31.15;100832.58;105988;1284;71929;-85
2023/05/22 17:21:52;;;;;;;8.80;4.60;;;;;;;22.74;31.07;100833.20;106025;1279;60032;-86
2023/05/22 17:24:38;;;;;;;10.30;4.60;;;;;;;22.69;31.13;100835.63;106318;1283;60241;-86
2023/05/22 17:27:23;;;;;;;6.00;3.80;;;;;;;22.64;31.21;100833.83;106129;1280;75239;-86
2023/05/22 17:30:08;;;;;;;5.90;3.80;;;;;;;22.61;31.36;100833.20;106178;1279;67388;-87
2023/05/22 17:32:54;;;;;;;6.50;4.20;;;;;;;22.57;31.45;100828.47;106191;1279;70525;-86
2023/05/22 17:35:39;;;;;;;7.50;4.00;;;;;;;22.53;31.54;100829.98;106186;1284;58933;-87
2023/05/22 17:38:23;;;;;;;3.90;2.80;;;;;;;22.49;31.63;100831.15;105788;1287;157976;-86
2023/05/22 17:41:09;;;;;;;7.40;3.40;;;;;;;22.42;31.58;100829.92;106128;1282;72404;-87
2023/05/22 17:43:55;;;;;;;4.20;2.50;;;;;;;22.37;31.73;100829.17;106100;1282;67322;-87
2023/05/22 17:46:40;;;;;;;;;;;;;;;22.31;31.80;100828.74;106179;1285;71514;-87
2023/05/22 17:49:24;;;;;;;7.30;2.50;;;;;;;22.23;31.82;100827.81;106077;1282;59277;-87
2023/05/22 17:52:09;;;;;;;3.10;2.40;;;;;;;22.16;31.83;100830.52;106157;1281;60180;-87
2023/05/22 17:54:54;;;;;;;4.80;2.90;;;;;;;22.09;31.97;100830.42;105933;1282;75170;-86
2023/05/22 17:57:39;;;;;;;8.10;2.80;;;;;;;22.04;32.14;100830.39;106110;1283;67323;-86
2023/05/22 18:00:23;;;;;;;6.10;3.00;;;;;;;22.00;32.11;100833.23;105999;1282;72165;-86
2023/05/22 18:03:09;;;;;;;4.30;2.40;;;;;;;21.95;32.27;100827.02;105906;1282;60562;-86
2023/05/22 18:05:55;;;;;;;3.10;2.30;;;;;;;21.90;32.34;100828.73;106910;1282;58776;-87
2023/05/22 18:08:41;;;;;;;6.70;2.50;;;;;;;21.85;32.37;100827.47;106871;1282;72500;-87
2023/05/22 18:11:27;;;;;;;4.90;2.30;;;;;;;21.79;32.46;100831.01;106731;1283;67289;-87
2023/05/22 18:14:14;;;;;;;;;;;;;;;21.72;32.48;100827.38;106756;1283;72264;-86
2023/05/22 18:17:00;;;;;;;4.70;2.80;;;;;;;21.67;32.61;100828.91;106863;1282;58479;-87
2023/05/22 18:19:46;;;;;;;;;;;;;;;21.61;32.62;100824.15;106915;1283;59109;-87
2023/05/22 18:22:36;;;;;;;8.80;4.60;;;;;;;21.55;32.71;100824.20;106047;1284;73910;-86
2023/05/22 18:25:22;;;;;;;4.20;2.90;;;;;;;21.47;32.65;100821.98;106048;1282;68215;-86
2023/05/22 18:28:09;;;;;;;3.90;2.70;;;;;;;21.41;32.95;100820.26;105965;1282;71300;-86
2023/05/22 18:30:56;;;;;;;3.30;2.80;;;;;;;21.32;33.00;100823.21;105882;1282;59731;-86
2023/05/22 18:33:45;;;;;;;5.90;3.00;;;;;;;21.24;33.04;100825.81;105914;1283;59708;-86
2023/05/22 18:36:32;;;;;;;7.00;4.00;;;;;;;21.16;33.20;100825.88;105853;1282;72130;-86
2023/05/22 18:39:19;;;;;;;6.10;3.40;;;;;;;21.09;33.18;100824.17;105979;1283;67377;-87
2023/05/22 18:42:06;;;;;;;7.50;4.20;;;;;;;21.01;33.30;100826.53;105984;1282;71349;-87
2023/05/22 18:44:54;;;;;;;4.70;3.40;;;;;;;20.92;33.39;100825.33;105808;1281;284137;-86
2023/05/22 18:47:41;;;;;;;8.30;4.20;;;;;;;20.82;33.58;100828.30;105958;1281;60284;-86
2023/05/22 18:50:27;;;;;;;10.30;5.60;;;;;;;20.73;33.63;100831.83;105706;1281;73276;-86
2023/05/22 18:53:13;;;;;;;10.30;4.40;;;;;;;20.64;33.75;100829.66;105858;1282;66491;-87
2023/05/22 18:56:00;;;;;;;10.20;5.70;;;;;;;20.52;33.77;100828.24;106006;1283;72232;-85
2023/05/22 18:58:46;;;;;;;7.70;5.80;;;;;;;20.42;33.92;100831.56;106014;1282;60354;-85
2023/05/22 19:01:32;;;;;;;7.90;5.80;;;;;;;20.34;34.12;100836.01;106136;1283;60263;-86
2023/05/22 19:04:19;;;;;;;11.50;4.70;;;;;;;20.25;34.19;100833.35;106059;1282;74493;-86
2023/05/22 19:07:06;;;;;;;7.30;5.50;;;;;;;20.16;34.34;100832.77;105861;1282;67208;-85
2023/05/22 19:09:52;;;;;;;10.40;9.30;;;;;;;20.05;34.42;100835.43;105787;1283;72617;-85
2023/05/22 19:12:39;;;;;;;11.40;8.00;;;;;;;19.93;34.63;100833.10;105945;1283;60402;-85
2023/05/22 19:15:25;;;;;;;9.20;6.00;;;;;;;19.84;34.64;100836.55;105934;1283;60357;-84
2023/05/22 19:18:10;;;;;;;11.90;6.20;;;;;;;19.75;34.82;100834.89;105998;1283;75285;-85
2023/05/22 19:20:54;;;;;;;9.20;5.10;;;;;;;19.68;34.98;100838.95;106157;1283;67302;-85
2023/05/22 19:23:39;;;;;;;13.10;5.30;;;;;;;19.60;35.09;100840.37;106145;1282;71129;-85
2023/05/22 19:26:23;;;;;;;6.30;4.70;;;;;;;19.53;35.21;100842.13;106035;1282;60457;-85
2023/05/22 19:29:07;;;;;;;9.00;4.80;;;;;;;19.44;35.34;100843.77;106086;1282;60545;-85
2023/05/22 19:31:51;;;;;;;9.00;4.30;;;;;;;19.34;35.47;100841.12;106069;1283;72952;-85
2023/05/22 19:34:35;;;;;;;9.60;4.30;;;;;;;19.24;35.57;100839.00;105933;1286;67215;-85
2023/05/22 19:37:20;;;;;;;11.40;4.50;;;;;;;19.16;35.79;100836.04;106113;1286;71286;-85
2023/05/22 19:40:05;;;;;;;6.40;4.70;;;;;;;19.08;35.89;100832.25;106164;1281;60525;-87
2023/05/22 19:42:50;;;;;;;13.50;4.70;;;;;;;19.01;36.07;100833.27;105790;1286;60382;-86